Westdale, New York
Current Conditions -  °F | °C
As of 12:20 AM on Thursday 27 Nov 2014 (Local Time) from KRME Reporting Station
Light Snow Light Snow  
Wind Chill: -6°   Ceiling: 1100
Heat Index: -2°   Visibility: 1.5mi
Dew Point: -3°   Wind: 9mph
Humidity: 92%   Direction: 280°W
Pressure: 29.97"   Gusts: NA
Location:  43.39°N, 75.82°W
Report Text: KRME 270520Z AUTO 28008KT 1 1/2SM -SN BR FEW007 OVC011 M02/M03 A2997 RMK AO2 P0000 T10171028
Loading
Personal Weather Stations






























Interactive Weather Map New forecast layout! Learn more

10-Day Weather Forecast

Advertisements
Track Severe Weather on mobile